Time;durP1;ratioP1;P1;durP2;ratioP2;P2;SDS_P1;SDS_P2;PMS_P1;PMS_P2;Temp;Humidity;BMP_temperature;BMP_pressure;BME280_temperature;BME280_humidity;BME280_pressure;Samples;Min_cycle;Max_cycle;Signal;HPM_P1;HPM_P2
2022/12/21 00:01:47;;;;;;;;;;;;;;;25.69;40.90;94248.69;4916273;29;7451;-59
2022/12/21 00:04:15;;;;;;;;;;;;;;;25.67;40.68;94245.69;4929834;28;7777;-59
2022/12/21 00:06:41;;;;;;;;;;;;;;;25.66;40.84;94230.44;4935131;28;8480;-59
2022/12/21 00:09:13;;;;;;;;;;;;;;;25.67;40.26;94242.19;4935186;28;7258;-59
2022/12/21 00:11:39;;;;;;;;;;;;;;;25.69;40.95;94242.41;4923078;29;7046;-59
2022/12/21 00:14:42;;;;;;;;;;;;;;;25.68;39.94;94238.94;4918410;29;7038;-59
2022/12/21 00:17:07;;;;;;;;;;;;;;;25.63;40.44;94236.22;4848427;29;7263;-59
2022/12/21 00:19:53;;;;;;;;;;;;;;;25.65;40.11;94230.94;4841526;29;9751;-59
2022/12/21 00:22:37;;;;;;;;;;;;;;;25.64;40.57;94240.47;4840782;29;7734;-59
2022/12/21 00:25:06;;;;;;;;;;;;;;;25.62;41.18;94232.72;4840579;29;7061;-59
2022/12/21 00:27:41;;;;;;;;;;;;;;;25.63;41.21;94242.47;4865228;29;7292;-59
2022/12/21 00:30:53;;;;;;;;;;;;;;;25.63;40.45;94239.72;4924043;29;7123;-59
2022/12/21 00:33:21;;;;;;;;;;;;;;;25.63;40.75;94242.47;4885423;29;7114;-59
2022/12/21 00:35:52;;;;;;;;;;;;;;;25.60;39.92;94232.47;4862426;29;9195;-59
2022/12/21 00:38:30;;;;;;;;;;;;;;;25.60;40.76;94248.28;4877229;29;7347;-59
2022/12/21 00:41:06;;;;;;;;;;;;;;;25.56;41.27;94234.78;4878323;29;7556;-59
2022/12/21 00:43:36;;;;;;;;;;;;;;;25.58;41.11;94237.75;4877660;29;7365;-59
2022/12/21 00:46:19;;;;;;;;;;;;;;;25.59;40.79;94233.75;4878829;29;8956;-59
2022/12/21 00:49:22;;;;;;;;;;;;;;;25.62;40.58;94221.69;4860226;29;7271;-59
2022/12/21 00:51:48;;;;;;;;;;;;;;;25.62;40.81;94229.94;4855289;29;7247;-59
2022/12/21 00:54:25;;;;;;;;;;;;;;;25.61;40.42;94222.97;4861446;29;7310;-59
2022/12/21 00:56:58;;;;;;;;;;;;;;;25.63;40.17;94219.69;4861468;29;7207;-59
2022/12/21 00:59:24;;;;;;;;;;;;;;;25.60;41.00;94207.69;4872054;29;7621;-59
2022/12/21 01:01:53;;;;;;;;;;;;;;;25.56;40.27;94206.47;4849607;29;7201;-59
2022/12/21 01:04:21;;;;;;;;;;;;;;;25.58;40.76;94204.72;4873635;29;9039;-59
2022/12/21 01:06:49;;;;;;;;;;;;;;;25.61;40.60;94203.69;4849269;29;7216;-59
2022/12/21 01:09:15;;;;;;;;;;;;;;;25.60;40.22;94209.72;4876087;28;7654;-59
2022/12/21 01:11:41;;;;;;;;;;;;;;;25.53;41.11;94197.25;4952302;28;7202;-59
2022/12/21 01:14:09;;;;;;;;;;;;;;;25.56;40.87;94198.97;4944960;28;7267;-59
2022/12/21 01:16:50;;;;;;;;;;;;;;;25.59;40.88;94197.19;4948094;28;9493;-59
2022/12/21 01:19:27;;;;;;;;;;;;;;;25.60;40.31;94201.47;4952932;28;7310;-59
2022/12/21 01:21:53;;;;;;;;;;;;;;;25.54;40.22;94198.75;4935604;28;7453;-59
2022/12/21 01:24:27;;;;;;;;;;;;;;;25.53;40.82;94205.53;4945107;28;9022;-59
2022/12/21 01:26:53;;;;;;;;;;;;;;;25.51;40.94;94202.53;5005388;28;7107;-59
2022/12/21 01:29:32;;;;;;;;;;;;;;;25.56;41.09;94214.75;4993277;28;9658;-59
2022/12/21 01:32:06;;;;;;;;;;;;;;;25.56;40.54;94217.50;5008972;28;8654;-59
2022/12/21 01:34:35;;;;;;;;;;;;;;;25.53;40.96;94222.03;4992362;28;7036;-59
2022/12/21 01:37:02;;;;;;;;;;;;;;;25.56;40.15;94223.00;5001851;28;9249;-60
2022/12/21 01:39:41;;;;;;;;;;;;;;;25.52;40.18;94206.78;5007438;28;7442;-59
2022/12/21 01:42:13;;;;;;;;;;;;;;;25.52;40.31;94211.53;5001614;28;8018;-59
2022/12/21 01:45:01;;;;;;;;;;;;;;;25.51;40.33;94208.06;4991007;28;7311;-59
2022/12/21 01:48:10;;;;;;;;;;;;;;;25.47;40.94;94215.81;5007892;28;7190;-59
2022/12/21 01:51:10;;;;;;;;;;;;;;;25.47;41.25;94220.59;4922214;29;7261;-59
2022/12/21 01:54:14;;;;;;;;;;;;;;;25.50;40.17;94230.56;4923021;29;7281;-59
2022/12/21 01:57:04;;;;;;;;;;;;;;;25.46;41.33;94219.09;4915228;29;7061;-59
2022/12/21 01:59:36;;;;;;;;;;;;;;;25.44;41.33;94216.88;4923473;28;9643;-59
2022/12/21 02:02:11;;;;;;;;;;;;;;;25.46;40.46;94228.09;4940511;28;7255;-59
2022/12/21 02:05:16;;;;;;;;;;;;;;;25.46;41.25;94214.34;4920052;29;9752;-59
2022/12/21 02:08:12;;;;;;;;;;;;;;;25.45;40.64;94215.59;4880651;29;7265;-59
2022/12/21 02:10:38;;;;;;;;;;;;;;;25.42;40.88;94211.13;4873264;29;9385;-59
2022/12/21 02:13:10;;;;;;;;;;;;;;;25.42;40.89;94208.38;4865392;29;8258;-59
2022/12/21 02:15:57;;;;;;;;;;;;;;;25.42;40.23;94203.59;4858724;29;9666;-59
2022/12/21 02:18:30;;;;;;;;;;;;;;;25.40;41.17;94211.59;4853631;29;7628;-59
2022/12/21 02:21:14;;;;;;;;;;;;;;;25.41;41.36;94206.84;4880468;29;7094;-59
2022/12/21 02:23:48;;;;;;;;;;;;;;;25.40;40.77;94221.88;4865760;29;7202;-59
2022/12/21 02:26:40;;;;;;;;;;;;;;;25.43;40.25;94215.34;4882178;29;7165;-59
2022/12/21 02:29:33;;;;;;;;;;;;;;;25.40;41.01;94208.13;4888950;29;8621;-59
2022/12/21 02:32:31;;;;;;;;;;;;;;;25.42;40.86;94224.91;4893465;29;7203;-59
2022/12/21 02:35:18;;;;;;;;;;;;;;;25.40;40.44;94219.13;4874037;29;7824;-59
2022/12/21 02:38:31;;;;;;;;;;;;;;;25.39;40.72;94215.63;4891862;29;7426;-59
2022/12/21 02:41:12;;;;;;;;;;;;;;;25.40;41.51;94217.09;4874408;29;7130;-59
2022/12/21 02:46:42;;;;;;;;;;;;;;;25.39;41.40;94220.38;4907839;28;9399;-59
2022/12/21 02:49:37;;;;;;;;;;;;;;;25.37;41.26;94207.13;4971307;28;7130;-59
2022/12/21 02:52:27;;;;;;;;;;;;;;;25.37;41.33;94222.91;4914908;29;9526;-59
2022/12/21 02:55:00;;;;;;;;;;;;;;;25.38;40.53;94224.41;4916185;29;7023;-59
2022/12/21 02:57:34;;;;;;;;;;;;;;;25.38;40.40;94225.13;4901972;29;9778;-59
2022/12/21 03:00:19;;;;;;;;;;;;;;;25.37;40.38;94228.41;4913499;29;10099;-59
2022/12/21 03:06:45;;;;;;;;;;;;;;;25.38;40.35;94225.13;4913895;29;7259;-59
2022/12/21 03:09:28;;;;;;;;;;;;;;;25.37;40.97;94222.91;4898027;29;7112;-59
2022/12/21 03:11:59;;;;;;;;;;;;;;;25.36;40.30;94229.66;4912996;29;7054;-59
2022/12/21 03:14:48;;;;;;;;;;;;;;;25.37;41.02;94228.41;4900289;29;7146;-59
2022/12/21 03:17:26;;;;;;;;;;;;;;;25.36;41.34;94230.41;4899588;29;7357;-60
2022/12/21 03:20:23;;;;;;;;;;;;;;;25.35;41.25;94226.16;4910992;29;9642;-59
2022/12/21 03:23:07;;;;;;;;;;;;;;;25.35;40.69;94230.94;4913754;29;8301;-59
2022/12/21 03:25:46;;;;;;;;;;;;;;;25.36;40.67;94235.16;4907720;29;8311;-60
2022/12/21 03:28:24;;;;;;;;;;;;;;;25.37;40.63;94220.16;4918140;28;7348;-60
2022/12/21 03:31:01;;;;;;;;;;;;;;;25.38;40.38;94219.63;4946088;28;7005;-60
2022/12/21 03:33:34;;;;;;;;;;;;;;;25.38;40.98;94218.91;4938822;28;7055;-60
2022/12/21 03:36:25;;;;;;;;;;;;;;;25.37;40.26;94214.63;4963827;28;9514;-59
2022/12/21 03:39:02;;;;;;;;;;;;;;;25.36;41.12;94204.88;4982615;28;9057;-59
2022/12/21 03:41:40;;;;;;;;;;;;;;;25.36;41.06;94199.38;4992416;28;7453;-59
2022/12/21 03:44:28;;;;;;;;;;;;;;;25.37;41.08;94206.38;4993840;28;7413;-59
2022/12/21 03:47:12;;;;;;;;;;;;;;;25.37;40.89;94215.38;4994563;28;9045;-58
2022/12/21 03:50:00;;;;;;;;;;;;;;;25.36;40.17;94215.88;4994205;28;9129;-59
2022/12/21 03:53:04;;;;;;;;;;;;;;;25.36;41.17;94216.63;4997308;28;8849;-58
2022/12/21 03:55:36;;;;;;;;;;;;;;;25.34;40.57;94221.16;4995514;28;7271;-59
2022/12/21 03:58:24;;;;;;;;;;;;;;;25.36;40.42;94221.38;5004507;28;7287;-59
2022/12/21 04:01:13;;;;;;;;;;;;;;;25.35;41.04;94225.41;4993003;28;7034;-59
2022/12/21 04:03:46;;;;;;;;;;;;;;;25.34;40.96;94224.66;5010494;28;7125;-59
2022/12/21 04:06:31;;;;;;;;;;;;;;;25.35;40.82;94226.16;4994142;28;6986;-59
2022/12/21 04:08:59;;;;;;;;;;;;;;;25.33;40.50;94219.69;4995860;28;7115;-59
2022/12/21 04:14:18;;;;;;;;;;;;;;;25.33;40.96;94223.19;4995294;28;8302;-59
2022/12/21 04:16:44;;;;;;;;;;;;;;;25.33;40.77;94216.94;4994204;28;9079;-59
2022/12/21 04:20:02;;;;;;;;;;;;;;;25.34;40.21;94230.16;4992185;28;7110;-59
2022/12/21 04:28:09;;;;;;;;;;;;;;;25.31;40.68;94233.97;4954000;28;7857;-59
2022/12/21 04:30:40;;;;;;;;;;;;;;;25.31;40.58;94236.72;4945102;28;7312;-59
2022/12/21 04:33:10;;;;;;;;;;;;;;;25.31;40.31;94241.47;4942315;28;7153;-59
2022/12/21 04:37:30;;;;;;;;;;;;;;;25.30;41.13;94234.47;4945771;28;7293;-59
2022/12/21 04:38:24;;;;;;;;;;;;;;;25.30;41.06;94237.22;4952442;28;9439;-59
2022/12/21 04:40:55;;;;;;;;;;;;;;;25.30;40.97;94237.22;4933908;28;7659;-59
2022/12/21 04:43:22;;;;;;;;;;;;;;;25.31;40.81;94244.97;4935618;28;7200;-59
2022/12/21 04:45:49;;;;;;;;;;;;;;;25.31;40.86;94241.47;4935708;28;7362;-59
2022/12/21 04:48:23;;;;;;;;;;;;;;;25.31;40.48;94244.97;4937168;28;7403;-59
2022/12/21 04:51:25;;;;;;;;;;;;;;;25.31;40.62;94244.97;4951870;28;9433;-59
2022/12/21 04:54:02;;;;;;;;;;;;;;;25.31;41.20;94244.22;4869752;29;8895;-59
2022/12/21 04:56:39;;;;;;;;;;;;;;;25.32;40.46;94240.19;4869774;29;7399;-59
2022/12/21 04:59:05;;;;;;;;;;;;;;;25.31;40.43;94241.47;4899027;29;9249;-59
2022/12/21 05:01:41;;;;;;;;;;;;;;;25.32;40.15;94240.19;4937746;28;7171;-59
2022/12/21 05:04:07;;;;;;;;;;;;;;;25.30;40.37;94237.97;4936598;28;7059;-59
2022/12/21 05:06:34;;;;;;;;;;;;;;;25.31;40.77;94242.22;4933982;28;7435;-59
2022/12/21 05:09:02;;;;;;;;;;;;;;;25.31;40.43;94241.47;4942807;28;7134;-59
2022/12/21 05:11:28;;;;;;;;;;;;;;;25.30;40.89;94240.72;4938035;28;7236;-59
2022/12/21 05:13:57;;;;;;;;;;;;;;;25.30;40.49;94239.97;4932851;29;7740;-59
2022/12/21 05:16:24;;;;;;;;;;;;;;;25.31;40.88;94238.72;4934008;28;7339;-59
2022/12/21 05:19:19;;;;;;;;;;;;;;;25.32;41.12;94248.47;4943623;28;7061;-59
2022/12/21 05:21:51;;;;;;;;;;;;;;;25.36;40.44;94243.41;4897514;29;7186;-59
2022/12/21 05:24:17;;;;;;;;;;;;;;;25.42;40.97;94238.66;4900076;29;7365;-58
2022/12/21 05:26:43;;;;;;;;;;;;;;;25.46;40.89;94241.88;4899259;29;7125;-59
2022/12/21 05:29:15;;;;;;;;;;;;;;;25.47;40.20;94240.59;4919961;29;10478;-59
2022/12/21 05:31:50;;;;;;;;;;;;;;;25.51;40.13;94243.09;4917759;29;7082;-59
2022/12/21 05:34:25;;;;;;;;;;;;;;;25.50;40.13;94241.59;4924382;29;7477;-59
2022/12/21 05:36:51;;;;;;;;;;;;;;;25.52;40.07;94247.31;4917671;29;9016;-59
2022/12/21 05:39:21;;;;;;;;;;;;;;;25.55;39.83;94249.06;4928939;29;8916;-59
2022/12/21 05:42:06;;;;;;;;;;;;;;;25.54;40.29;94253.81;4917271;29;7639;-59
2022/12/21 05:45:00;;;;;;;;;;;;;;;25.56;40.16;94251.28;4912030;29;9451;-59
2022/12/21 05:47:35;;;;;;;;;;;;;;;25.57;40.89;94252.81;4921737;28;6925;-59
2022/12/21 05:50:03;;;;;;;;;;;;;;;25.59;40.16;94252.28;4911526;29;7117;-58
2022/12/21 05:52:31;;;;;;;;;;;;;;;25.59;39.75;94255.03;4921087;29;9284;-58
2022/12/21 05:54:59;;;;;;;;;;;;;;;25.59;40.35;94255.78;4917033;29;7372;-59
2022/12/21 05:57:25;;;;;;;;;;;;;;;25.58;40.16;94257.03;4935005;28;9468;-58
2022/12/21 05:59:51;;;;;;;;;;;;;;;25.56;40.79;94259.56;4988129;28;7846;-59
2022/12/21 06:02:17;;;;;;;;;;;;;;;25.55;40.43;94251.81;4988383;28;8705;-59
2022/12/21 06:04:42;;;;;;;;;;;;;;;25.55;40.95;94251.81;4983716;28;7039;-59
2022/12/21 06:07:18;;;;;;;;;;;;;;;25.56;41.13;94250.53;4985004;28;8993;-59
2022/12/21 06:09:44;;;;;;;;;;;;;;;25.56;40.33;94248.53;4984481;28;8665;-59
2022/12/21 06:12:10;;;;;;;;;;;;;;;25.54;40.64;94242.81;5004111;28;7334;-59
2022/12/21 06:14:35;;;;;;;;;;;;;;;25.56;40.80;94245.03;4988225;28;7359;-59
2022/12/21 06:17:04;;;;;;;;;;;;;;;25.56;41.33;94245.78;4991806;28;9151;-60
2022/12/21 06:19:33;;;;;;;;;;;;;;;25.59;41.03;94246.78;4988638;28;7096;-60
2022/12/21 06:22:14;;;;;;;;;;;;;;;25.59;41.27;94235.75;5002925;28;7296;-60
2022/12/21 06:24:46;;;;;;;;;;;;;;;25.58;41.17;94223.97;5003749;28;7156;-59
2022/12/21 06:27:12;;;;;;;;;;;;;;;25.64;40.46;94223.94;5002668;28;7137;-60
2022/12/21 06:29:41;;;;;;;;;;;;;;;25.65;40.14;94222.69;5000763;28;9425;-59
2022/12/21 06:32:11;;;;;;;;;;;;;;;25.64;40.44;94212.94;4986224;28;9648;-59
2022/12/21 06:34:37;;;;;;;;;;;;;;;25.65;40.59;94209.66;4999422;28;9074;-59
2022/12/21 06:37:03;;;;;;;;;;;;;;;25.65;40.88;94217.16;4987786;28;7200;-59
2022/12/21 06:39:29;;;;;;;;;;;;;;;25.65;40.84;94219.91;4987181;28;7075;-59
2022/12/21 06:41:56;;;;;;;;;;;;;;;25.66;40.42;94219.44;5002111;28;7278;-58
2022/12/21 06:44:23;;;;;;;;;;;;;;;25.68;40.27;94216.91;5002921;28;7334;-58
2022/12/21 06:46:55;;;;;;;;;;;;;;;25.69;40.08;94223.13;4995400;28;8709;-58
2022/12/21 06:49:30;;;;;;;;;;;;;;;25.68;40.21;94225.16;4992762;28;7224;-59
2022/12/21 06:51:56;;;;;;;;;;;;;;;25.69;39.83;94225.88;5001244;28;7076;-59
2022/12/21 06:54:28;;;;;;;;;;;;;;;25.67;39.87;94223.66;4990324;28;7019;-59
2022/12/21 06:56:59;;;;;;;;;;;;;;;25.68;40.46;94230.66;4987929;28;7068;-59
2022/12/21 06:59:25;;;;;;;;;;;;;;;25.68;40.03;94230.66;5005848;28;7023;-59
2022/12/21 07:01:51;;;;;;;;;;;;;;;25.69;40.00;94236.91;5007500;28;8422;-59
2022/12/21 07:04:20;;;;;;;;;;;;;;;25.68;40.57;94236.19;4992371;28;10188;-58
2022/12/21 07:06:48;;;;;;;;;;;;;;;25.67;40.90;94220.91;5003652;28;8742;-58
2022/12/21 07:09:14;;;;;;;;;;;;;;;25.67;40.18;94226.41;4985365;28;7519;-59
2022/12/21 07:11:40;;;;;;;;;;;;;;;25.66;40.90;94221.44;4985554;28;7234;-59
2022/12/21 07:14:06;;;;;;;;;;;;;;;25.65;40.77;94223.44;4985136;28;8580;-59
2022/12/21 07:16:34;;;;;;;;;;;;;;;25.65;40.83;94219.91;4985601;28;8502;-59
2022/12/21 07:19:02;;;;;;;;;;;;;;;25.66;41.00;94210.41;5006084;28;7080;-59
2022/12/21 07:21:41;;;;;;;;;;;;;;;25.68;41.39;94202.38;5006499;28;9335;-59
2022/12/21 07:24:10;;;;;;;;;;;;;;;25.69;40.98;94201.84;4971117;28;7042;-59
2022/12/21 07:26:37;;;;;;;;;;;;;;;25.71;40.53;94207.59;4989559;28;9040;-59
2022/12/21 07:29:05;;;;;;;;;;;;;;;25.73;40.86;94207.09;5006466;28;7855;-59
2022/12/21 07:31:32;;;;;;;;;;;;;;;25.75;41.26;94219.06;4989766;28;7887;-59
2022/12/21 07:34:18;;;;;;;;;;;;;;;25.77;41.17;94207.56;4989479;28;7212;-59
2022/12/21 07:36:49;;;;;;;;;;;;;;;25.76;41.57;94198.53;4993668;28;9359;-59
2022/12/21 07:39:17;;;;;;;;;;;;;;;25.74;40.71;94206.56;4992890;28;8467;-59
2022/12/21 07:41:56;;;;;;;;;;;;;;;25.76;41.16;94203.28;4991259;28;7039;-59
2022/12/21 07:44:30;;;;;;;;;;;;;;;25.77;41.54;94205.53;5010092;28;7269;-59
2022/12/21 07:47:11;;;;;;;;;;;;;;;25.79;41.28;94216.78;5007851;28;7288;-59
2022/12/21 07:49:44;;;;;;;;;;;;;;;25.79;40.90;94213.28;5003799;28;7345;-59
2022/12/21 07:52:20;;;;;;;;;;;;;;;25.79;41.03;94214.03;5005855;28;9715;-59
2022/12/21 07:54:48;;;;;;;;;;;;;;;25.82;41.02;94210.22;4992160;28;8234;-59
2022/12/21 07:57:23;;;;;;;;;;;;;;;25.83;40.99;94208.97;4991310;28;8870;-60
2022/12/21 07:59:56;;;;;;;;;;;;;;;25.80;41.44;94204.50;4990802;28;8730;-60
2022/12/21 08:02:22;;;;;;;;;;;;;;;25.80;41.41;94203.75;5007543;28;7150;-59
2022/12/21 08:04:50;;;;;;;;;;;;;;;25.79;41.51;94207.78;4991802;28;7336;-59
2022/12/21 08:07:23;;;;;;;;;;;;;;;25.74;41.78;94209.31;4991577;28;9058;-59
2022/12/21 08:09:49;;;;;;;;;;;;;;;25.73;41.39;94224.34;4990170;28;7209;-59
2022/12/21 08:12:17;;;;;;;;;;;;;;;25.74;41.00;94231.34;4988374;28;7372;-59
2022/12/21 08:14:43;;;;;;;;;;;;;;;25.78;41.59;94228.31;4993811;28;9761;-59
2022/12/21 08:17:09;;;;;;;;;;;;;;;25.74;41.82;94228.59;4992429;28;9019;-59
2022/12/21 08:19:36;;;;;;;;;;;;;;;25.74;41.82;94234.13;4993411;28;9600;-59
2022/12/21 08:22:05;;;;;;;;;;;;;;;25.75;41.66;94226.59;4992115;28;7284;-59
2022/12/21 08:24:33;;;;;;;;;;;;;;;25.73;41.83;94229.84;4986172;28;7348;-59
2022/12/21 08:26:59;;;;;;;;;;;;;;;25.74;41.55;94227.84;5005651;28;8276;-59
2022/12/21 08:29:26;;;;;;;;;;;;;;;25.72;42.14;94231.13;4991485;28;7138;-59
2022/12/21 08:31:54;;;;;;;;;;;;;;;25.73;41.87;94232.59;4993823;28;7557;-59
2022/12/21 08:34:20;;;;;;;;;;;;;;;25.76;41.38;94228.09;4989891;28;7220;-59
2022/12/21 08:36:49;;;;;;;;;;;;;;;25.76;41.93;94228.09;5012718;28;8923;-59
2022/12/21 08:39:25;;;;;;;;;;;;;;;25.75;42.16;94230.09;4990793;28;7901;-59
2022/12/21 08:41:54;;;;;;;;;;;;;;;25.76;42.19;94219.81;4994872;28;7795;-59
2022/12/21 08:44:20;;;;;;;;;;;;;;;25.75;42.05;94223.84;5007741;28;7372;-59
2022/12/21 08:47:01;;;;;;;;;;;;;;;25.72;42.07;94224.88;4986666;28;7858;-59
2022/12/21 08:49:33;;;;;;;;;;;;;;;25.74;42.43;94228.59;4992072;28;7238;-60
2022/12/21 08:52:39;;;;;;;;;;;;;;;25.72;41.66;94231.13;5007955;28;7353;-60
2022/12/21 08:55:15;;;;;;;;;;;;;;;25.70;42.73;94222.63;4909664;29;7556;-60
2022/12/21 08:57:41;;;;;;;;;;;;;;;25.75;42.06;94238.34;4901053;29;7032;-59
2022/12/21 09:00:15;;;;;;;;;;;;;;;25.76;42.12;94239.84;4898859;29;7010;-60
2022/12/21 09:02:41;;;;;;;;;;;;;;;25.78;41.86;94242.09;4905888;29;8886;-60
2022/12/21 09:05:23;;;;;;;;;;;;;;;25.77;42.27;94235.09;4893554;29;7046;-60
2022/12/21 09:08:02;;;;;;;;;;;;;;;25.79;41.94;94240.84;4898427;29;7027;-59
2022/12/21 09:10:31;;;;;;;;;;;;;;;25.79;41.00;94244.34;4908307;29;9467;-59
2022/12/21 09:12:57;;;;;;;;;;;;;;;25.78;41.72;94244.84;4913225;29;7084;-59
2022/12/21 09:15:25;;;;;;;;;;;;;;;25.75;42.24;94245.88;4918129;29;7136;-60
2022/12/21 09:17:51;;;;;;;;;;;;;;;25.71;41.48;94237.88;4897539;29;7040;-60
2022/12/21 09:20:27;;;;;;;;;;;;;;;25.73;42.05;94249.13;4911343;29;7187;-60
2022/12/21 09:23:10;;;;;;;;;;;;;;;25.72;42.58;94242.16;4911194;29;7113;-59
2022/12/21 09:26:21;;;;;;;;;;;;;;;25.73;41.60;94243.63;4913136;29;7340;-60
2022/12/21 09:28:47;;;;;;;;;;;;;;;25.75;41.90;94254.88;4906177;28;6985;-59
2022/12/21 09:31:18;;;;;;;;;;;;;;;25.73;41.74;94257.41;4953729;28;9018;-60
2022/12/21 09:33:57;;;;;;;;;;;;;;;25.71;41.93;94256.44;4946429;28;8976;-59
2022/12/21 09:36:25;;;;;;;;;;;;;;;25.70;42.20;94266.72;4935358;28;6872;-59
2022/12/21 09:38:51;;;;;;;;;;;;;;;25.71;41.51;94256.44;4949697;28;7477;-59
2022/12/21 09:41:49;;;;;;;;;;;;;;;25.69;41.51;94259.69;4952197;28;7875;-59
2022/12/21 09:44:59;;;;;;;;;;;;;;;25.70;41.72;94260.44;4949773;28;9335;-59
2022/12/21 09:47:42;;;;;;;;;;;;;;;25.69;42.47;94262.44;4932686;28;9109;-59
2022/12/21 09:50:22;;;;;;;;;;;;;;;25.71;41.67;94257.16;4951589;28;9669;-59
2022/12/21 09:53:00;;;;;;;;;;;;;;;25.72;41.93;94257.94;4952129;28;8077;-59
2022/12/21 09:55:33;;;;;;;;;;;;;;;25.72;42.29;94263.44;4945882;28;7309;-59
2022/12/21 09:58:13;;;;;;;;;;;;;;;25.70;41.76;94266.72;4952379;28;7398;-59
2022/12/21 10:00:46;;;;;;;;;;;;;;;25.69;42.15;94267.97;4951618;28;7418;-59
2022/12/21 10:03:41;;;;;;;;;;;;;;;25.69;42.23;94273.47;4951232;28;7928;-59
2022/12/21 10:06:19;;;;;;;;;;;;;;;25.70;41.58;94280.50;4979785;28;7216;-59
2022/12/21 10:09:17;;;;;;;;;;;;;;;25.68;42.02;94274.75;4990882;28;9334;-59
2022/12/21 10:11:56;;;;;;;;;;;;;;;25.69;41.70;94278.22;5004119;28;9073;-59
2022/12/21 10:14:35;;;;;;;;;;;;;;;25.68;42.21;94269.22;5006607;28;8675;-59
2022/12/21 10:17:22;;;;;;;;;;;;;;;25.68;41.94;94269.22;5006118;28;7247;-59
2022/12/21 10:20:12;;;;;;;;;;;;;;;25.68;41.75;94266.47;4991150;28;7427;-59
2022/12/21 10:22:49;;;;;;;;;;;;;;;25.67;41.66;94267.72;5005194;28;9457;-58
2022/12/21 10:25:25;;;;;;;;;;;;;;;25.66;42.36;94271.75;4993223;28;7049;-58
2022/12/21 10:28:28;;;;;;;;;;;;;;;25.67;41.67;94267.72;4991065;28;7197;-59
2022/12/21 10:31:05;;;;;;;;;;;;;;;25.67;41.71;94267.72;4991576;28;7121;-58
2022/12/21 10:33:40;;;;;;;;;;;;;;;25.68;42.56;94263.72;5005719;28;9605;-59
2022/12/21 10:36:35;;;;;;;;;;;;;;;25.67;41.68;94262.22;4992373;28;7453;-58
2022/12/21 10:39:13;;;;;;;;;;;;;;;25.67;41.54;94261.47;4988565;28;8234;-59
2022/12/21 10:42:06;;;;;;;;;;;;;;;25.62;42.70;94254.75;4998510;28;8395;-59
2022/12/21 10:44:41;;;;;;;;;;;;;;;25.65;42.48;94255.72;4943555;29;7185;-59
2022/12/21 10:47:26;;;;;;;;;;;;;;;25.65;42.01;94245.47;4951281;28;7042;-59
2022/12/21 10:50:16;;;;;;;;;;;;;;;25.65;42.89;94253.72;4949401;28;7373;-58
2022/12/21 10:52:47;;;;;;;;;;;;;;;25.62;42.86;94254.75;4948481;29;7063;-59
2022/12/21 10:55:19;;;;;;;;;;;;;;;25.64;42.48;94257.00;4936559;28;7433;-59
2022/12/21 10:58:03;;;;;;;;;;;;;;;25.64;42.64;94243.97;4945920;28;8676;-59
2022/12/21 11:01:02;;;;;;;;;;;;;;;25.60;43.68;94240.75;4946088;29;7566;-59
2022/12/21 11:03:43;;;;;;;;;;;;;;;25.60;42.38;94251.03;4930853;29;7434;-60
2022/12/21 11:06:13;;;;;;;;;;;;;;;25.62;42.63;94254.75;4925301;29;7283;-60
2022/12/21 11:08:53;;;;;;;;;;;;;;;25.67;43.21;94242.94;4927452;29;9035;-60
2022/12/21 11:11:34;;;;;;;;;;;;;;;25.72;42.84;94249.66;4906867;29;9366;-60
2022/12/21 11:14:20;;;;;;;;;;;;;;;25.72;42.65;94246.91;4915943;29;9783;-60
2022/12/21 11:16:47;;;;;;;;;;;;;;;25.73;42.71;94242.91;4933544;29;8601;-59
2022/12/21 11:19:18;;;;;;;;;;;;;;;25.73;42.26;94238.13;4931851;29;7570;-59
2022/12/21 11:21:55;;;;;;;;;;;;;;;25.69;42.51;94234.91;4937582;28;7285;-59
2022/12/21 11:24:28;;;;;;;;;;;;;;;25.64;43.33;94230.22;4931978;28;8551;-59
2022/12/21 11:27:00;;;;;;;;;;;;;;;25.62;43.19;94227.19;4953939;28;8534;-59
2022/12/21 11:29:38;;;;;;;;;;;;;;;25.60;42.85;94232.47;4946481;28;7317;-59
2022/12/21 11:32:15;;;;;;;;;;;;;;;25.64;43.00;94224.69;4939840;28;9152;-60
2022/12/21 11:34:53;;;;;;;;;;;;;;;25.64;42.69;94230.22;4952334;28;8262;-59
2022/12/21 11:37:39;;;;;;;;;;;;;;;25.62;42.90;94223.72;4950930;28;9043;-59
2022/12/21 11:40:13;;;;;;;;;;;;;;;25.66;42.54;94226.94;4952388;28;7224;-59
2022/12/21 11:43:15;;;;;;;;;;;;;;;25.68;43.39;94227.16;4999165;28;7122;-59
2022/12/21 11:46:18;;;;;;;;;;;;;;;25.68;42.70;94225.16;5003148;28;7218;-59
2022/12/21 11:48:51;;;;;;;;;;;;;;;25.69;42.77;94225.88;4993296;28;8895;-59
2022/12/21 11:51:44;;;;;;;;;;;;;;;25.70;42.12;94228.16;4992395;28;7028;-59
2022/12/21 11:54:25;;;;;;;;;;;;;;;25.71;42.03;94221.38;4993918;28;8720;-58
2022/12/21 11:57:07;;;;;;;;;;;;;;;25.73;42.58;94216.06;5007052;28;7337;-59
2022/12/21 11:59:49;;;;;;;;;;;;;;;25.75;42.66;94207.31;5009800;28;7286;-59
2022/12/21 12:02:27;;;;;;;;;;;;;;;25.74;42.85;94209.31;5008391;28;7134;-59
2022/12/21 12:04:55;;;;;;;;;;;;;;;25.74;42.85;94195.53;5013747;28;7183;-59
2022/12/21 12:07:50;;;;;;;;;;;;;;;25.73;42.11;94199.56;4994404;28;7821;-59
2022/12/21 12:10:27;;;;;;;;;;;;;;;25.73;42.54;94196.78;4990719;28;9503;-59
2022/12/21 12:13:12;;;;;;;;;;;;;;;25.73;42.58;94188.53;5009399;28;9056;-59
2022/12/21 12:16:12;;;;;;;;;;;;;;;25.77;42.88;94182.75;4988077;28;7127;-59
2022/12/21 12:18:45;;;;;;;;;;;;;;;25.74;43.02;94186.53;4991287;28;7112;-59
2022/12/21 12:21:29;;;;;;;;;;;;;;;25.78;42.29;94184.22;4991764;28;7393;-59
2022/12/21 12:24:04;;;;;;;;;;;;;;;25.78;42.72;94187.75;5002003;28;7148;-59
2022/12/21 12:26:47;;;;;;;;;;;;;;;25.80;41.96;94189.97;5006543;28;7051;-60
2022/12/21 12:29:29;;;;;;;;;;;;;;;25.80;42.79;94185.22;5007409;28;7289;-59
2022/12/21 12:32:14;;;;;;;;;;;;;;;25.82;43.13;94185.44;5008554;28;7867;-58
2022/12/21 12:38:33;;;;;;;;;;;;;;;25.85;41.83;94181.66;4994679;28;7364;-59
2022/12/21 12:41:44;;;;;;;;;;;;;;;25.81;42.10;94183.97;4992965;28;7170;-59
2022/12/21 12:44:43;;;;;;;;;;;;;;;25.78;41.95;94173.97;5009575;28;8005;-59
2022/12/21 12:47:33;;;;;;;;;;;;;;;25.78;42.62;94168.44;5009943;28;7236;-59
2022/12/21 12:50:19;;;;;;;;;;;;;;;25.80;41.76;94165.94;5005988;28;7228;-59
2022/12/21 12:53:12;;;;;;;;;;;;;;;25.80;41.23;94171.44;4998362;28;7512;-59
2022/12/21 12:56:05;;;;;;;;;;;;;;;25.76;42.05;94165.47;4993748;28;7044;-59
2022/12/21 12:59:03;;;;;;;;;;;;;;;25.78;42.17;94157.44;5010054;28;7274;-59
2022/12/21 13:02:10;;;;;;;;;;;;;;;25.78;42.17;94168.44;5006051;28;8327;-59
2022/12/21 13:05:05;;;;;;;;;;;;;;;25.78;41.38;94160.19;4991584;28;7084;-59
2022/12/21 13:08:00;;;;;;;;;;;;;;;25.81;41.62;94169.44;5006559;28;8972;-59
2022/12/21 13:10:47;;;;;;;;;;;;;;;25.80;41.37;94160.41;4994233;28;7212;-59
2022/12/21 13:13:34;;;;;;;;;;;;;;;25.80;41.59;94168.69;5001536;28;8428;-59
2022/12/21 13:16:08;;;;;;;;;;;;;;;25.79;41.90;94175.47;4986461;28;7025;-59
2022/12/21 13:19:04;;;;;;;;;;;;;;;25.81;41.43;94170.19;4991170;28;7125;-59
2022/12/21 13:21:38;;;;;;;;;;;;;;;25.80;41.69;94174.19;5014124;28;7041;-59
2022/12/21 13:24:12;;;;;;;;;;;;;;;25.79;41.95;94172.72;4983946;28;7472;-59
2022/12/21 13:26:46;;;;;;;;;;;;;;;25.77;41.47;94174.50;4985026;28;7499;-59
2022/12/21 13:29:32;;;;;;;;;;;;;;;25.75;41.62;94172.22;4991419;28;8999;-59
2022/12/21 13:32:29;;;;;;;;;;;;;;;25.76;41.50;94170.22;4991503;28;7271;-59
2022/12/21 13:35:06;;;;;;;;;;;;;;;25.77;41.13;94172.47;5008678;28;7246;-59
2022/12/21 13:38:00;;;;;;;;;;;;;;;25.76;41.48;94173.72;5000409;28;8646;-59
2022/12/21 13:40:41;;;;;;;;;;;;;;;25.78;41.28;94176.72;4987918;28;7272;-59
2022/12/21 13:44:00;;;;;;;;;;;;;;;25.76;41.40;94176.50;4997517;28;8691;-59
2022/12/21 13:46:33;;;;;;;;;;;;;;;25.75;41.14;94179.78;4995795;28;7639;-59
2022/12/21 13:49:24;;;;;;;;;;;;;;;25.77;40.97;94175.25;5008209;28;7211;-59
2022/12/21 13:51:55;;;;;;;;;;;;;;;25.78;41.62;94175.97;5006904;28;9192;-59
2022/12/21 13:54:23;;;;;;;;;;;;;;;25.76;40.84;94179.25;5013149;28;8599;-59
2022/12/21 13:57:13;;;;;;;;;;;;;;;25.76;41.00;94176.50;4999354;28;7061;-59
2022/12/21 14:00:02;;;;;;;;;;;;;;;25.76;40.96;94178.50;4935512;28;7087;-59
2022/12/21 14:02:38;;;;;;;;;;;;;;;25.74;41.67;94179.03;4921341;29;7345;-59
2022/12/21 14:05:27;;;;;;;;;;;;;;;25.74;41.19;94173.50;4924178;28;8638;-59
2022/12/21 14:08:26;;;;;;;;;;;;;;;25.74;41.07;94165.25;4917963;29;7298;-59
2022/12/21 14:11:39;;;;;;;;;;;;;;;25.76;41.14;94172.97;4934445;28;8250;-59
2022/12/21 14:14:40;;;;;;;;;;;;;;;25.75;41.94;94169.47;4948625;28;7088;-59